Terminal Aerodrome Forecast
Issued by NWS Austin/San Antonio, TX

Home | Current Version | Previous Version | Text Only | Print | Product List | Glossary On
Versions: 1 2 3 4 5 6 7 8 9 10 11 12 13 14 15 16 17 18
000
FTUS44 KEWX 202342
TAFDRT
TAF
KDRT 202342Z 2100/2124 14013KT P6SM SCT040 BKN250
     FM210900 12008KT P6SM BKN012
     FM211100 11010KT P6SM OVC007
     FM211200 12010KT 5SM BR OVC004
     FM211500 13010KT P6SM OVC008
     FM211800 13009KT P6SM OVC015
     FM212100 13010KT P6SM SCT025 BKN250=

USA.gov is the U.S. government's official web portal to all federal, state and local government web resources and services.